Time;durP1;ratioP1;P1;durP2;ratioP2;P2;SDS_P1;SDS_P2;PMS_P1;PMS_P2;Temp;Humidity;BMP_temperature;BMP_pressure;BME280_temperature;BME280_humidity;BME280_pressure;Samples;Min_cycle;Max_cycle;Signal;HPM_P1;HPM_P2
2021/09/08 00:00:27;;;;;;;48.92;35.10;;;;;;;14.98;90.43;100966.31;2870786;80;21097;-71
2021/09/08 00:04:31;;;;;;;37.15;26.77;;;;;;;14.88;90.92;100957.40;2901168;81;21474;-71
2021/09/08 00:08:33;;;;;;;31.17;22.55;;;;;;;14.79;91.30;100955.56;2883917;81;21023;-71
2021/09/08 00:12:36;;;;;;;30.80;21.02;;;;;;;14.66;91.58;100950.42;2870126;83;21034;-72
2021/09/08 00:16:38;;;;;;;31.17;23.07;;;;;;;14.62;92.02;100948.98;2870120;83;20976;-72
2021/09/08 00:20:40;;;;;;;33.85;23.15;;;;;;;14.68;92.17;100959.99;2870447;83;21031;-73
2021/09/08 00:24:41;;;;;;;36.85;23.90;;;;;;;14.81;91.14;100957.09;2870254;80;21575;-72
2021/09/08 00:28:43;;;;;;;34.35;22.40;;;;;;;14.93;90.52;100960.50;2870076;83;20975;-72
2021/09/08 00:32:45;;;;;;;22.25;17.60;;;;;;;15.04;90.06;100962.24;2870417;83;21036;-72
2021/09/08 00:36:47;;;;;;;34.58;20.25;;;;;;;15.12;88.75;100962.86;2870066;83;21011;-72
2021/09/08 00:40:48;;;;;;;23.00;17.10;;;;;;;15.10;87.25;100960.81;2870004;83;20960;-72
2021/09/08 00:44:50;;;;;;;22.20;18.27;;;;;;;15.09;86.77;100960.47;2869855;83;21109;-72
2021/09/08 00:48:52;;;;;;;27.45;19.92;;;;;;;15.08;86.32;100966.81;2869560;83;21031;-72
2021/09/08 00:52:54;;;;;;;27.27;21.55;;;;;;;15.07;85.96;100965.98;2870039;83;21071;-72
2021/09/08 00:56:57;;;;;;;35.30;22.37;;;;;;;14.97;86.31;100965.10;2840689;83;21074;-72
2021/09/08 01:01:00;;;;;;;28.35;21.55;;;;;;;14.94;87.12;100955.53;2869659;83;20999;-72
2021/09/08 01:05:02;;;;;;;29.30;22.73;;;;;;;14.96;86.51;100959.39;2870053;83;21082;-72
2021/09/08 01:09:07;;;;;;;30.85;20.20;;;;;;;14.93;86.41;100961.84;2869822;83;20967;-72
2021/09/08 01:13:09;;;;;;;24.13;19.17;;;;;;;14.91;85.87;100967.00;2870089;83;21070;-72
2021/09/08 01:17:11;;;;;;;24.92;17.85;;;;;;;14.86;85.62;100972.77;2869488;83;21034;-72
2021/09/08 01:21:12;;;;;;;18.27;15.28;;;;;;;14.81;85.83;100966.47;2869839;83;21370;-73
2021/09/08 01:25:19;;;;;;;22.48;17.82;;;;;;;14.83;85.88;100966.34;2870037;83;20987;-73
2021/09/08 01:29:21;;;;;;;25.32;17.35;;;;;;;14.82;86.17;100964.14;2869933;83;21054;-73
2021/09/08 01:33:24;;;;;;;30.15;19.98;;;;;;;14.60;86.13;100961.18;2869768;83;21046;-73
2021/09/08 01:37:26;;;;;;;24.10;17.75;;;;;;;14.50;86.31;100965.16;2869742;83;20991;-72
2021/09/08 01:41:27;;;;;;;25.45;16.85;;;;;;;14.47;86.51;100960.55;2869959;83;21054;-72
2021/09/08 01:45:29;;;;;;;22.77;17.62;;;;;;;14.45;86.70;100958.03;2870288;83;21019;-72
2021/09/08 01:49:31;;;;;;;23.30;18.35;;;;;;;14.45;85.81;100956.70;2869942;83;21027;-72
2021/09/08 01:53:32;;;;;;;16.97;15.25;;;;;;;14.43;85.74;100951.46;2869717;83;21011;-72
2021/09/08 01:57:35;;;;;;;18.60;14.73;;;;;;;14.43;85.26;100950.59;2869732;83;21090;-73
2021/09/08 02:01:37;;;;;;;23.42;16.15;;;;;;;14.36;84.98;100953.00;2870063;83;21301;-72
2021/09/08 02:05:39;;;;;;;23.87;17.10;;;;;;;14.25;85.60;100954.41;2869994;83;21007;-73
2021/09/08 02:09:41;;;;;;;24.82;16.77;;;;;;;14.18;88.11;100950.58;2869979;83;20995;-72
2021/09/08 02:13:42;;;;;;;22.45;17.20;;;;;;;14.06;88.07;100950.66;2870126;83;20999;-72
2021/09/08 02:17:44;;;;;;;24.98;16.93;;;;;;;14.08;88.71;100948.69;2869864;81;21042;-73
2021/09/08 02:21:45;;;;;;;21.10;16.17;;;;;;;14.10;88.63;100944.05;2870137;83;21055;-73
2021/09/08 02:25:47;;;;;;;25.35;16.10;;;;;;;14.16;88.21;100941.34;2870156;83;21034;-73
2021/09/08 02:29:49;;;;;;;20.92;15.75;;;;;;;14.21;87.56;100944.96;2870074;83;21047;-72
2021/09/08 02:33:51;;;;;;;18.57;15.25;;;;;;;14.20;87.20;100948.11;2869536;83;20999;-73
2021/09/08 02:37:52;;;;;;;17.48;14.58;;;;;;;14.21;87.13;100948.97;2870128;83;20992;-73
2021/09/08 02:41:54;;;;;;;28.90;23.90;;;;;;;14.08;86.22;100931.30;2896582;81;20971;-73
2021/09/08 02:45:55;;;;;;;22.48;18.10;;;;;;;13.86;88.73;100941.69;2920756;81;21061;-73
2021/09/08 02:49:57;;;;;;;26.42;20.80;;;;;;;13.69;89.78;100942.63;2913268;81;21313;-74
2021/09/08 02:53:59;;;;;;;35.85;22.93;;;;;;;13.49;90.60;100942.95;2903449;82;21038;-72
2021/09/08 02:58:01;;;;;;;33.83;20.70;;;;;;;13.27;91.78;100947.39;2903804;82;21044;-71
2021/09/08 03:02:03;;;;;;;38.60;20.37;;;;;;;13.12;93.13;100946.84;2904293;81;21038;-71
2021/09/08 03:06:05;;;;;;;30.08;19.27;;;;;;;13.02;94.19;100949.89;2904636;81;21468;-71
2021/09/08 03:10:08;;;;;;;30.37;18.50;;;;;;;12.94;94.79;100947.02;2925524;81;21023;-72
2021/09/08 03:14:10;;;;;;;34.30;20.32;;;;;;;12.90;95.28;100941.06;2925576;81;20991;-71
2021/09/08 03:18:12;;;;;;;27.22;19.70;;;;;;;13.04;96.27;100938.59;2924972;81;21268;-71
2021/09/08 03:22:14;;;;;;;27.13;17.77;;;;;;;13.19;94.40;100940.52;2898132;81;20986;-70
2021/09/08 03:26:15;;;;;;;23.27;16.70;;;;;;;13.33;93.84;100944.70;2858470;83;21022;-71
2021/09/08 03:30:17;;;;;;;23.67;16.07;;;;;;;13.50;92.96;100942.48;2870344;83;21054;-70
2021/09/08 03:34:19;;;;;;;29.63;19.75;;;;;;;13.59;90.49;100935.52;2870016;83;21085;-71
2021/09/08 03:38:21;;;;;;;24.77;18.82;;;;;;;13.41;91.02;100933.38;2870316;83;21006;-71
2021/09/08 03:42:24;;;;;;;27.02;19.17;;;;;;;13.22;92.79;100937.58;2870072;83;21010;-72
2021/09/08 03:46:26;;;;;;;32.55;21.82;;;;;;;13.02;94.19;100937.05;2869997;83;21046;-71
2021/09/08 03:50:27;;;;;;;24.95;20.40;;;;;;;12.86;95.37;100935.63;2869512;83;20999;-72
2021/09/08 03:54:29;;;;;;;27.25;18.55;;;;;;;12.73;96.27;100929.57;2870531;83;21007;-72
2021/09/08 03:58:31;;;;;;;27.77;21.25;;;;;;;12.64;96.97;100928.02;2870402;82;21064;-72
2021/09/08 04:02:33;;;;;;;24.80;20.68;;;;;;;12.56;97.40;100936.64;2870710;82;20998;-72
2021/09/08 04:06:35;;;;;;;27.10;20.95;;;;;;;12.49;97.54;100939.91;2871666;80;20955;-73
2021/09/08 04:10:36;;;;;;;36.48;23.02;;;;;;;12.45;98.39;100933.14;2891554;81;21027;-74
2021/09/08 04:35:29;;;;;;;31.87;24.52;;;;;;;12.57;100.00;100941.00;2911085;80;21024;-59
2021/09/08 04:39:31;;;;;;;33.92;24.07;;;;;;;12.64;100.00;100945.37;2905455;82;21033;-62
2021/09/08 04:43:41;;;;;;;32.88;26.95;;;;;;;12.69;100.00;100943.17;2874662;83;20923;-62
2021/09/08 04:47:43;;;;;;;35.08;24.07;;;;;;;12.81;100.00;100940.50;2874784;83;21009;-59
2021/09/08 04:51:45;;;;;;;31.30;25.25;;;;;;;13.05;100.00;100941.63;2874592;83;20950;-63
2021/09/08 04:55:47;;;;;;;38.92;26.17;;;;;;;13.32;100.00;100936.80;2874878;83;20987;-59
2021/09/08 05:00:09;;;;;;;36.95;26.48;;;;;;;13.68;100.00;100940.07;2905970;81;20949;-59
2021/09/08 05:04:11;;;;;;;35.90;25.60;;;;;;;14.08;100.00;100932.64;2906148;82;21013;-59
2021/09/08 05:08:13;;;;;;;44.80;28.95;;;;;;;14.61;99.12;100937.44;2906053;82;21023;-60
2021/09/08 05:12:17;;;;;;;38.90;29.67;;;;;;;14.97;97.05;100939.17;2905827;82;21063;-59
2021/09/08 05:21:36;;;;;;;44.30;29.85;;;;;;;15.42;95.34;100939.11;2905959;80;21048;-59
2021/09/08 05:25:38;;;;;;;39.18;30.15;;;;;;;15.74;94.06;100934.45;2905622;82;21035;-60
2021/09/08 05:29:40;;;;;;;42.38;30.08;;;;;;;15.92;93.13;100931.88;2906093;82;20999;-59
2021/09/08 05:34:20;;;;;;;33.53;26.35;;;;;;;16.13;92.46;100933.52;2905795;80;21035;-62
2021/09/08 05:38:22;;;;;;;45.20;31.50;;;;;;;16.32;91.50;100932.61;2906089;82;21003;-59
2021/09/08 05:42:24;;;;;;;39.90;28.50;;;;;;;16.47;90.80;100930.76;2906425;82;21044;-59
2021/09/08 05:46:26;;;;;;;36.98;27.40;;;;;;;16.62;90.50;100931.95;2906210;80;20960;-59
2021/09/08 05:50:29;;;;;;;36.08;27.93;;;;;;;16.81;89.92;100930.16;2906267;82;20988;-58
2021/09/08 05:54:31;;;;;;;40.92;29.65;;;;;;;17.07;89.59;100932.98;2906110;82;21032;-59
2021/09/08 05:58:32;;;;;;;36.48;26.50;;;;;;;17.38;88.59;100923.17;2906206;82;21223;-59
2021/09/08 06:02:59;;;;;;;42.05;27.45;;;;;;;17.72;87.70;100926.98;2905939;81;21544;-58
2021/09/08 06:07:02;;;;;;;32.98;26.17;;;;;;;17.98;86.60;100922.09;2905921;80;21000;-58
2021/09/08 06:11:12;;;;;;;46.15;29.70;;;;;;;18.18;86.00;100916.52;2906373;82;21004;-61
2021/09/08 06:15:17;;;;;;;43.40;34.53;;;;;;;18.45;85.58;100919.98;2905915;80;21036;-59
2021/09/08 06:20:29;;;;;;;45.00;32.88;;;;;;;18.52;85.49;100918.35;2906245;82;20984;-58
2021/09/08 06:24:31;;;;;;;40.25;27.90;;;;;;;18.74;86.27;100922.28;2905696;80;20969;-59
2021/09/08 06:28:44;;;;;;;39.65;26.50;;;;;;;19.28;85.33;100916.19;2906159;82;21051;-58
2021/09/08 06:32:46;;;;;;;35.95;27.05;;;;;;;19.48;83.16;100916.67;2905992;82;21000;-58
2021/09/08 06:36:53;;;;;;;33.70;24.40;;;;;;;19.57;82.95;100912.12;2905710;80;21013;-58
2021/09/08 06:41:20;;;;;;;32.90;24.32;;;;;;;19.68;81.39;100902.34;2906005;82;21232;-63
2021/09/08 06:45:23;;;;;;;39.48;23.95;;;;;;;19.70;81.66;100909.23;2905980;80;21404;-59
2021/09/08 06:49:25;;;;;;;33.78;23.47;;;;;;;19.93;82.01;100909.89;2906210;82;21063;-58
2021/09/08 06:53:41;;;;;;;31.85;22.20;;;;;;;20.20;80.78;100916.40;2905824;80;21020;-59
2021/09/08 06:57:43;;;;;;;35.85;22.37;;;;;;;20.50;80.39;100915.28;2906175;82;20995;-59
2021/09/08 07:01:45;;;;;;;32.03;23.27;;;;;;;20.74;79.72;100912.11;2906118;80;21054;-58
2021/09/08 07:05:57;;;;;;;23.62;20.57;;;;;;;21.09;78.56;100907.19;2906007;82;20965;-61
2021/09/08 07:09:59;;;;;;;31.20;23.92;;;;;;;21.18;76.42;100910.16;2906171;80;21000;-59
2021/09/08 07:14:01;;;;;;;29.80;21.07;;;;;;;21.24;77.10;100912.16;2906275;82;20964;-62
2021/09/08 07:18:08;;;;;;;24.35;18.75;;;;;;;21.36;76.54;100908.50;2905870;82;21211;-59
2021/09/08 07:22:10;;;;;;;28.27;20.50;;;;;;;21.62;76.03;100910.48;2906084;80;21012;-63
2021/09/08 07:26:11;;;;;;;28.77;20.10;;;;;;;21.70;75.85;100896.89;2906252;82;20957;-59
2021/09/08 07:30:17;;;;;;;24.55;18.30;;;;;;;21.92;76.12;100906.47;2905974;82;20976;-58
2021/09/08 07:34:19;;;;;;;24.20;17.80;;;;;;;22.12;75.05;100901.36;2906248;80;20968;-59
2021/09/08 07:38:32;;;;;;;25.23;18.30;;;;;;;22.22;74.47;100895.65;2906135;81;21118;-58
2021/09/08 07:42:33;;;;;;;20.90;16.62;;;;;;;22.21;73.03;100896.69;2906250;80;20969;-58
2021/09/08 07:46:43;;;;;;;19.48;16.50;;;;;;;22.28;73.47;100898.95;2906232;82;21167;-58
2021/09/08 07:50:45;;;;;;;19.05;15.98;;;;;;;22.46;72.89;100900.42;2906315;80;21059;-58
2021/09/08 07:54:47;;;;;;;41.50;17.65;;;;;;;22.63;72.12;100893.79;2906446;82;20992;-62
2021/09/08 07:58:48;;;;;;;21.12;15.83;;;;;;;22.81;71.04;100900.12;2880666;80;21016;-58
2021/09/08 08:03:03;;;;;;;16.05;12.35;;;;;;;22.97;71.18;100906.34;2906120;80;20968;-59
2021/09/08 08:07:05;;;;;;;28.23;14.68;;;;;;;23.16;70.26;100900.77;2906343;80;20972;-59
2021/09/08 08:11:06;;;;;;;16.93;10.98;;;;;;;23.35;68.43;100899.83;2906287;80;21325;-58
2021/09/08 08:15:10;;;;;;;19.30;11.48;;;;;;;23.58;68.15;100906.89;2906431;80;20940;-60
2021/09/08 08:19:12;;;;;;;16.90;11.38;;;;;;;23.62;66.47;100901.41;2905751;82;20987;-61
2021/09/08 08:23:14;;;;;;;15.10;9.98;;;;;;;23.65;65.67;100906.44;2906007;80;21231;-59
2021/09/08 08:32:34;;;;;;;14.05;11.38;;;;;;;23.89;65.47;100901.59;2905806;82;21213;-61
2021/09/08 08:36:58;;;;;;;11.97;9.35;;;;;;;24.03;64.29;100892.52;2905993;81;21043;-58
2021/09/08 08:41:00;;;;;;;18.80;13.22;;;;;;;24.19;64.54;100898.66;2905991;80;21028;-61
2021/09/08 08:45:13;;;;;;;14.00;8.65;;;;;;;24.36;64.25;100892.35;2906184;80;21050;-58
2021/09/08 08:49:17;;;;;;;14.75;10.70;;;;;;;24.55;64.31;100889.38;2874331;81;21284;-63
2021/09/08 08:53:59;;;;;;;14.85;12.68;;;;;;;24.70;62.95;100885.66;2905866;79;20976;-59
2021/09/08 08:58:01;;;;;;;17.45;10.25;;;;;;;24.74;62.44;100892.36;2905424;79;20928;-61
2021/09/08 09:02:34;;;;;;;17.25;9.45;;;;;;;24.86;61.99;100883.95;2905861;80;20956;-58
2021/09/08 09:07:05;;;;;;;52.00;18.37;;;;;;;24.99;62.93;100887.21;2874774;83;20967;-61
2021/09/08 09:11:09;;;;;;;14.15;9.35;;;;;;;25.10;61.36;100892.56;2906006;82;21027;-61
2021/09/08 09:20:24;;;;;;;12.88;9.48;;;;;;;25.14;61.62;100894.36;2905985;82;21007;-60
2021/09/08 09:24:28;;;;;;;15.90;10.43;;;;;;;25.07;62.21;100888.39;2853607;83;21000;-58
2021/09/08 09:28:31;;;;;;;13.62;9.50;;;;;;;25.20;61.35;100888.07;2906078;80;20979;-60
2021/09/08 09:33:15;;;;;;;13.28;9.73;;;;;;;25.33;62.02;100882.64;2874551;80;21070;-58
2021/09/08 09:37:17;;;;;;;16.40;10.68;;;;;;;25.50;62.80;100867.27;2874695;83;20982;-58
2021/09/08 09:41:28;;;;;;;13.20;10.35;;;;;;;25.58;61.19;100867.58;2906164;79;20991;-60
2021/09/08 09:45:36;;;;;;;11.43;10.10;;;;;;;25.66;61.23;100857.80;2905881;79;20979;-59
2021/09/08 09:49:37;;;;;;;12.75;9.50;;;;;;;25.71;61.74;100853.91;2906433;80;20991;-60
2021/09/08 09:53:41;;;;;;;14.18;10.18;;;;;;;25.79;61.72;100846.89;2874672;80;20959;-58
2021/09/08 09:57:44;;;;;;;13.40;9.93;;;;;;;25.85;60.81;100838.91;2905658;80;21070;-59
2021/09/08 10:02:29;;;;;;;18.75;9.75;;;;;;;25.90;60.75;100845.91;2854116;83;20999;-61
2021/09/08 10:06:31;;;;;;;12.13;8.53;;;;;;;25.86;60.01;100834.62;2874507;83;21476;-58
2021/09/08 10:10:36;;;;;;;22.20;10.00;;;;;;;25.91;61.53;100831.22;2888206;82;20988;-58
2021/09/08 10:15:01;;;;;;;;;;;;;;;26.07;60.42;100818.48;2891014;82;20952;-58
2021/09/08 10:19:07;;;;;;;9.80;7.50;;;;;;;26.26;61.35;100811.83;2888367;82;20126;-58
2021/09/08 10:23:15;;;;;;;;;;;;;;;26.42;58.04;100817.83;2890375;82;20988;-59
2021/09/08 10:27:25;;;;;;;31.07;18.73;;;;;;;26.49;58.58;100811.28;2888002;82;20103;-58
2021/09/08 10:31:27;;;;;;;15.72;11.48;;;;;;;26.58;57.88;100800.09;2884219;81;20977;-59
2021/09/08 10:40:54;;;;;;;24.05;17.00;;;;;;;26.83;57.80;100797.95;2888002;79;21059;-60
2021/09/08 10:44:55;;;;;;;9.28;6.42;;;;;;;27.01;55.77;100789.82;2887939;82;21271;-62
2021/09/08 10:49:48;;;;;;;11.03;7.37;;;;;;;27.10;55.10;100784.91;2888073;82;20964;-58
2021/09/08 10:59:07;;;;;;;7.75;5.20;;;;;;;27.22;53.38;100776.30;2864367;82;20980;-58
2021/09/08 11:03:27;;;;;;;6.30;5.70;;;;;;;27.35;54.84;100771.78;2888274;82;21024;-59
2021/09/08 11:07:29;;;;;;;9.40;6.67;;;;;;;27.42;54.38;100760.24;2885141;78;21048;-61
2021/09/08 11:11:52;;;;;;;7.20;6.00;;;;;;;27.54;54.70;100757.62;2887995;82;20992;-60
2021/09/08 11:16:35;;;;;;;12.73;9.78;;;;;;;27.65;53.83;100754.66;2869435;82;20992;-58
2021/09/08 11:20:38;;;;;;;10.90;7.67;;;;;;;27.74;52.64;100753.30;2888308;82;20975;-67
2021/09/08 11:24:40;;;;;;;7.62;6.25;;;;;;;27.64;51.36;100748.89;2888165;79;20916;-60
2021/09/08 11:28:41;;;;;;;16.02;11.68;;;;;;;27.64;53.20;100748.38;2888584;82;20980;-60
2021/09/08 11:32:59;;;;;;;7.42;5.75;;;;;;;27.73;52.38;100750.27;2888367;82;21031;-59
2021/09/08 11:37:04;;;;;;;12.25;6.28;;;;;;;27.85;51.82;100739.91;2888243;78;20968;-58
2021/09/08 11:41:05;;;;;;;8.58;6.35;;;;;;;27.94;52.43;100735.25;2888640;82;21031;-62
2021/09/08 11:45:09;;;;;;;7.55;5.50;;;;;;;28.07;50.28;100735.59;2888598;79;20999;-58
2021/09/08 11:49:13;;;;;;;10.33;6.77;;;;;;;28.16;48.63;100725.75;2888622;79;20995;-58
2021/09/08 11:53:20;;;;;;;8.68;6.37;;;;;;;28.14;50.04;100726.48;2888300;79;21008;-60
2021/09/08 11:57:23;;;;;;;25.10;10.80;;;;;;;28.12;50.53;100723.16;2887291;82;21024;-60
2021/09/08 12:01:31;;;;;;;18.40;9.75;;;;;;;28.09;51.58;100716.24;2888453;80;21016;-59
2021/09/08 12:05:33;;;;;;;20.23;12.65;;;;;;;28.10;49.73;100722.01;2888456;82;21047;-59
2021/09/08 12:10:11;;;;;;;16.25;9.53;;;;;;;28.17;50.44;100724.68;2888346;82;21034;-58
2021/09/08 12:19:45;;;;;;;7.30;6.03;;;;;;;28.29;48.61;100717.33;2888175;82;21016;-59
2021/09/08 12:23:47;;;;;;;27.00;8.58;;;;;;;28.42;48.99;100714.09;2888241;82;21004;-59
2021/09/08 12:27:53;;;;;;;20.15;13.25;;;;;;;28.27;48.07;100711.27;2888383;82;21008;-63
2021/09/08 12:32:00;;;;;;;11.18;8.28;;;;;;;28.18;48.90;100705.29;2888389;82;20944;-61
2021/09/08 12:36:07;;;;;;;18.98;12.05;;;;;;;28.23;47.86;100703.23;2888168;82;20976;-61
2021/09/08 12:40:14;;;;;;;11.33;6.75;;;;;;;28.15;48.43;100696.16;2885414;82;21008;-59
2021/09/08 12:44:53;;;;;;;17.98;10.08;;;;;;;28.22;48.51;100697.46;2888094;82;21008;-58
2021/09/08 12:48:54;;;;;;;9.23;6.75;;;;;;;28.36;47.56;100692.09;2888539;82;20972;-62
2021/09/08 12:52:57;;;;;;;20.95;10.95;;;;;;;28.32;47.77;100687.31;2897194;82;21025;-59
2021/09/08 12:57:20;;;;;;;7.42;6.08;;;;;;;28.04;47.54;100682.75;2903503;82;20984;-59
2021/09/08 13:01:22;;;;;;;14.43;9.23;;;;;;;28.03;49.51;100672.89;2902633;80;21029;-65
2021/09/08 13:05:35;;;;;;;8.53;6.12;;;;;;;28.11;47.07;100675.01;2902714;82;21063;-70
2021/09/08 13:09:39;;;;;;;16.90;7.08;;;;;;;28.24;49.74;100661.69;2867032;83;21042;-59
2021/09/08 13:13:41;;;;;;;9.33;5.85;;;;;;;28.38;47.10;100656.28;2867555;83;20944;-60
2021/09/08 13:18:06;;;;;;;4.97;4.47;;;;;;;28.51;48.44;100642.94;2866606;82;20994;-59
2021/09/08 13:22:08;;;;;;;27.27;8.90;;;;;;;28.51;45.75;100637.46;2867381;83;21014;-60
2021/09/08 13:26:16;;;;;;;6.37;5.15;;;;;;;28.51;47.46;100631.44;2867234;83;21014;-62
2021/09/08 13:30:18;;;;;;;8.93;5.65;;;;;;;28.61;47.88;100618.53;2867269;83;20944;-61
2021/09/08 13:55:12;;;;;;;56.63;10.80;;;;;;;28.59;44.34;100596.05;2845715;83;21092;-69
2021/09/08 13:59:14;;;;;;;7.80;5.53;;;;;;;28.57;44.77;100599.56;2825782;84;20989;-70
2021/09/08 14:03:16;;;;;;;7.90;5.67;;;;;;;28.53;44.78;100584.70;2841331;83;21003;-70
2021/09/08 14:07:20;;;;;;;5.28;4.67;;;;;;;28.56;44.71;100581.48;2874755;83;21058;-70
2021/09/08 14:11:21;;;;;;;12.65;5.92;;;;;;;28.65;47.85;100578.67;2873027;83;21030;-70
2021/09/08 14:15:23;;;;;;;6.85;5.03;;;;;;;28.82;48.45;100571.12;2874598;83;21015;-70
2021/09/08 14:19:25;;;;;;;10.43;5.25;;;;;;;28.87;45.45;100568.48;2874736;83;21018;-70
2021/09/08 14:23:26;;;;;;;15.32;8.38;;;;;;;28.76;44.10;100566.59;2874587;81;21519;-70
2021/09/08 14:27:28;;;;;;;10.25;6.75;;;;;;;28.49;43.68;100567.08;2872161;83;20968;-70
2021/09/08 14:31:33;;;;;;;6.60;5.87;;;;;;;28.22;43.79;100571.15;2872199;83;21031;-70
2021/09/08 14:35:34;;;;;;;6.92;5.10;;;;;;;28.09;43.96;100565.86;2871808;83;21035;-70
2021/09/08 14:39:36;;;;;;;9.85;5.83;;;;;;;27.97;44.25;100554.92;2871781;83;20944;-70
2021/09/08 14:43:38;;;;;;;17.17;6.95;;;;;;;27.94;45.07;100556.76;2878314;82;21008;-70
2021/09/08 14:47:40;;;;;;;11.28;6.10;;;;;;;27.97;46.36;100557.66;2886473;82;21074;-69
2021/09/08 14:51:42;;;;;;;13.53;5.25;;;;;;;27.89;43.97;100549.78;2874517;83;21028;-70
2021/09/08 14:55:45;;;;;;;6.65;4.78;;;;;;;27.71;43.67;100544.72;2880548;82;30573;-70
2021/09/08 14:59:47;;;;;;;6.17;5.40;;;;;;;27.69;45.71;100546.02;2886748;82;21058;-69
2021/09/08 15:03:49;;;;;;;9.48;5.65;;;;;;;27.67;45.70;100539.95;2890525;81;21576;-69
2021/09/08 15:07:50;;;;;;;9.58;5.72;;;;;;;27.61;45.29;100537.61;2893239;82;21052;-69
2021/09/08 15:11:52;;;;;;;6.10;4.47;;;;;;;27.53;44.39;100536.05;2894153;81;21025;-69
2021/09/08 15:15:53;;;;;;;6.75;5.58;;;;;;;27.49;44.74;100534.27;2879086;82;21034;-69
2021/09/08 15:19:55;;;;;;;7.85;4.20;;;;;;;27.42;43.99;100534.09;2874464;83;21339;-69
2021/09/08 15:23:56;;;;;;;5.10;4.12;;;;;;;27.38;43.38;100532.34;2861432;83;21052;-69
2021/09/08 15:27:58;;;;;;;6.70;5.25;;;;;;;27.26;43.93;100527.37;2874509;83;21006;-69
2021/09/08 15:32:00;;;;;;;6.72;4.72;;;;;;;27.20;43.71;100525.88;2884080;82;20997;-69
2021/09/08 15:36:03;;;;;;;6.70;4.78;;;;;;;27.18;44.33;100523.91;2893711;82;21072;-68
2021/09/08 15:40:07;;;;;;;7.53;4.75;;;;;;;27.15;45.55;100517.55;2882310;82;20971;-69
2021/09/08 15:44:08;;;;;;;10.03;5.50;;;;;;;27.09;44.60;100517.08;2880296;82;21037;-68
2021/09/08 15:48:10;;;;;;;8.28;5.03;;;;;;;26.98;44.77;100512.42;2882994;82;21017;-69
2021/09/08 15:52:12;;;;;;;6.85;5.17;;;;;;;26.90;44.87;100508.11;2878837;82;21030;-69
2021/09/08 15:56:13;;;;;;;10.90;6.25;;;;;;;26.81;45.52;100508.37;2874504;83;21081;-69
2021/09/08 16:00:16;;;;;;;12.75;6.30;;;;;;;26.72;46.35;100504.30;2874564;83;21043;-69
2021/09/08 16:04:18;;;;;;;24.25;9.35;;;;;;;26.65;46.33;100501.64;2880825;82;20994;-69
2021/09/08 16:08:21;;;;;;;36.70;21.50;;;;;;;26.57;46.90;100499.75;2878241;82;21049;-69
2021/09/08 16:12:27;;;;;;;42.67;23.42;;;;;;;26.43;47.38;100499.06;2892297;81;21057;-70
2021/09/08 16:16:27;;;;;;;46.98;19.85;;;;;;;26.27;48.08;100498.59;2883896;82;21055;-69
2021/09/08 16:20:29;;;;;;;34.25;20.75;;;;;;;26.18;47.91;100495.87;2887673;82;21045;-69
2021/09/08 16:24:31;;;;;;;17.67;12.33;;;;;;;26.03;48.40;100497.53;2886613;82;21989;-68
2021/09/08 16:28:33;;;;;;;13.83;6.65;;;;;;;25.89;49.26;100488.64;2882215;82;21071;-68
2021/09/08 16:32:34;;;;;;;26.77;7.58;;;;;;;25.68;49.79;100486.61;2887783;82;21586;-68
2021/09/08 16:36:36;;;;;;;23.10;11.20;;;;;;;25.42;50.30;100483.01;2884667;82;21005;-68
2021/09/08 16:40:38;;;;;;;18.57;8.98;;;;;;;25.24;50.12;100476.41;2887528;82;21060;-68
2021/09/08 16:44:40;;;;;;;14.50;10.08;;;;;;;25.10;50.32;100481.11;2887358;82;21072;-68
2021/09/08 16:48:42;;;;;;;36.08;24.63;;;;;;;24.96;50.76;100482.22;2887295;82;21459;-68
2021/09/08 16:52:45;;;;;;;21.35;13.22;;;;;;;24.76;51.09;100482.30;2887463;81;21001;-69
2021/09/08 16:56:46;;;;;;;33.73;20.43;;;;;;;24.59;52.28;100479.20;2887706;82;21041;-69
2021/09/08 17:00:48;;;;;;;30.37;18.85;;;;;;;24.38;53.05;100479.27;2889768;82;21038;-68
2021/09/08 17:04:50;;;;;;;29.27;16.57;;;;;;;24.18;53.22;100479.30;2877820;81;21011;-68
2021/09/08 17:08:52;;;;;;;20.20;13.32;;;;;;;23.99;53.98;100478.27;2825387;83;21046;-68
2021/09/08 17:12:54;;;;;;;35.50;20.70;;;;;;;23.84;54.05;100480.35;2889336;82;21024;-70
2021/09/08 17:16:56;;;;;;;29.65;18.73;;;;;;;23.64;54.60;100480.64;2886891;82;21127;-70
2021/09/08 17:20:57;;;;;;;44.23;26.65;;;;;;;23.46;55.04;100482.62;2879951;82;21046;-70
2021/09/08 17:25:00;;;;;;;80.90;31.93;;;;;;;23.30;55.77;100480.29;2884688;82;21114;-70
2021/09/08 17:29:03;;;;;;;46.15;20.55;;;;;;;23.06;56.57;100481.14;2877722;82;21030;-70
2021/09/08 17:33:04;;;;;;;23.32;14.35;;;;;;;22.81;56.97;100478.98;2873892;83;21034;-70
2021/09/08 17:37:08;;;;;;;15.05;10.68;;;;;;;22.62;57.41;100485.45;2873964;83;21011;-70
2021/09/08 17:45:14;;;;;;;39.18;13.05;;;;;;;22.40;58.13;100487.38;2886204;82;21110;-70
2021/09/08 17:49:16;;;;;;;34.50;18.15;;;;;;;22.25;58.69;100491.03;2873962;83;21034;-71
2021/09/08 17:53:19;;;;;;;36.55;21.52;;;;;;;22.07;59.23;100494.75;2873603;83;21074;-71
2021/09/08 17:57:22;;;;;;;39.40;24.27;;;;;;;21.89;59.53;100496.08;2833360;81;21044;-70
2021/09/08 18:01:24;;;;;;;34.85;23.20;;;;;;;21.74;60.24;100497.52;2866292;82;21046;-70
2021/09/08 18:05:26;;;;;;;30.35;19.02;;;;;;;21.52;61.05;100498.84;2888852;81;21010;-71
2021/09/08 18:09:28;;;;;;;23.02;15.30;;;;;;;21.32;61.92;100505.42;2888469;82;21105;-71
2021/09/08 18:13:30;;;;;;;26.50;15.10;;;;;;;21.10;62.50;100499.95;2889890;81;21037;-70
2021/09/08 18:17:33;;;;;;;22.95;13.58;;;;;;;20.96;62.64;100510.31;2843887;82;21021;-71
2021/09/08 18:21:35;;;;;;;18.35;12.33;;;;;;;20.87;63.20;100512.28;2870735;81;21027;-71
2021/09/08 18:25:37;;;;;;;19.77;12.37;;;;;;;20.78;63.01;100509.30;2877834;82;20978;-70
2021/09/08 18:29:39;;;;;;;18.23;12.70;;;;;;;20.71;63.74;100508.39;2890052;81;21022;-70
2021/09/08 18:33:41;;;;;;;37.60;14.98;;;;;;;20.55;64.26;100506.20;2890518;82;21042;-71
2021/09/08 18:37:46;;;;;;;34.20;13.80;;;;;;;20.36;64.87;100515.18;2890097;82;21009;-69
2021/09/08 18:41:48;;;;;;;18.32;10.80;;;;;;;20.19;65.21;100519.91;2889940;82;21081;-69
2021/09/08 18:45:50;;;;;;;18.92;11.65;;;;;;;20.05;65.45;100510.77;2890205;82;21014;-69
2021/09/08 18:49:53;;;;;;;14.93;10.05;;;;;;;19.96;65.82;100510.50;2889888;82;21064;-68
2021/09/08 18:53:57;;;;;;;34.65;10.65;;;;;;;19.83;66.24;100510.56;2884541;81;21027;-69
2021/09/08 18:57:59;;;;;;;30.45;14.53;;;;;;;19.73;66.45;100509.13;2869296;83;21034;-69
2021/09/08 19:02:01;;;;;;;24.05;16.48;;;;;;;19.66;66.77;100519.31;2868373;83;21079;-69
2021/09/08 19:06:03;;;;;;;22.25;14.70;;;;;;;19.63;66.83;100523.72;2869100;83;21074;-69
2021/09/08 19:10:06;;;;;;;21.35;13.68;;;;;;;19.62;66.99;100511.75;2867137;83;21003;-68
2021/09/08 19:14:08;;;;;;;26.62;15.03;;;;;;;19.64;67.01;100511.05;2869358;83;21090;-68
2021/09/08 19:18:10;;;;;;;24.45;15.68;;;;;;;19.64;66.75;100507.01;2868843;83;20995;-68
2021/09/08 19:22:12;;;;;;;26.12;14.87;;;;;;;19.64;66.88;100505.16;2868852;83;21038;-69
2021/09/08 19:26:13;;;;;;;17.25;12.68;;;;;;;19.61;66.94;100501.98;2875920;82;21038;-69
2021/09/08 19:30:16;;;;;;;14.65;11.12;;;;;;;19.47;67.57;100511.69;2879878;82;21021;-69
2021/09/08 19:34:18;;;;;;;16.40;11.70;;;;;;;19.30;68.03;100512.31;2877618;82;21081;-69
2021/09/08 19:38:20;;;;;;;18.92;10.13;;;;;;;19.20;68.19;100512.02;2882320;82;21045;-69
2021/09/08 19:42:21;;;;;;;13.15;9.35;;;;;;;19.10;68.63;100517.63;2876602;82;21085;-69
2021/09/08 19:46:23;;;;;;;11.12;9.03;;;;;;;18.97;69.00;100510.09;2859496;81;21096;-69
2021/09/08 19:50:26;;;;;;;11.90;9.90;;;;;;;18.84;69.40;100507.95;2841655;83;21057;-68
2021/09/08 19:54:29;;;;;;;14.10;8.85;;;;;;;18.69;69.59;100501.13;2833209;83;21046;-68
2021/09/08 19:58:31;;;;;;;14.00;9.38;;;;;;;18.56;70.24;100510.25;2820984;83;21034;-68